Time;durP1;ratioP1;P1;durP2;ratioP2;P2;SDS_P1;SDS_P2;PMS_P1;PMS_P2;Temp;Humidity;BMP_temperature;BMP_pressure;BME280_temperature;BME280_humidity;BME280_pressure;Samples;Min_cycle;Max_cycle;Signal;HPM_P1;HPM_P2
2023/06/16 00:08:10;;;;;;;8.38;5.88;;;;;;;;;;20997238;28;20052;-66
2023/06/16 00:18:11;;;;;;;7.68;4.78;;;;;;;;;;20996414;28;20040;-67
2023/06/16 00:28:12;;;;;;;6.55;4.93;;;;;;;;;;20996837;28;20056;-66
2023/06/16 00:38:13;;;;;;;6.78;4.75;;;;;;;;;;20999043;28;20446;-66
2023/06/16 00:48:14;;;;;;;7.65;4.85;;;;;;;;;;21013070;28;20037;-66
2023/06/16 00:58:17;;;;;;;6.00;4.43;;;;;;;;;;21012621;28;20040;-66
2023/06/16 01:08:18;;;;;;;6.43;4.43;;;;;;;;;;21010406;28;20080;-66
2023/06/16 01:18:22;;;;;;;8.65;4.43;;;;;;;;;;21010600;28;20037;-66
2023/06/16 01:28:25;;;;;;;4.15;3.00;;;;;;;;;;21009453;28;20116;-66
2023/06/16 01:38:26;;;;;;;3.92;2.75;;;;;;;;;;21009381;28;20079;-66
2023/06/16 01:48:27;;;;;;;3.22;2.50;;;;;;;;;;21006444;28;20114;-65
2023/06/16 01:58:28;;;;;;;3.33;2.38;;;;;;;;;;21008383;28;20048;-65
2023/06/16 02:08:30;;;;;;;4.55;2.15;;;;;;;;;;21005808;28;20037;-66
2023/06/16 02:18:32;;;;;;;2.72;2.03;;;;;;;;;;21005286;28;20123;-66
2023/06/16 02:28:33;;;;;;;6.60;2.88;;;;;;;;;;21005349;28;20075;-66
2023/06/16 02:38:34;;;;;;;2.88;2.50;;;;;;;;;;21005053;28;20523;-66
2023/06/16 02:48:35;;;;;;;4.45;2.67;;;;;;;;;;21002786;28;20182;-66
2023/06/16 02:58:36;;;;;;;3.88;2.58;;;;;;;;;;21003287;28;20048;-66
2023/06/16 03:08:37;;;;;;;3.17;2.33;;;;;;;;;;21002573;28;20547;-65
2023/06/16 03:18:38;;;;;;;2.83;2.42;;;;;;;;;;21001711;28;20482;-66
2023/06/16 03:28:41;;;;;;;5.15;2.22;;;;;;;;;;21000066;28;20067;-66
2023/06/16 03:38:42;;;;;;;3.22;2.40;;;;;;;;;;21000395;28;20044;-66
2023/06/16 03:48:43;;;;;;;3.55;2.20;;;;;;;;;;20998198;28;20040;-64
2023/06/16 03:58:44;;;;;;;4.05;2.22;;;;;;;;;;20997128;28;20050;-66
2023/06/16 04:08:46;;;;;;;5.22;2.55;;;;;;;;;;20998053;28;20047;-66
2023/06/16 04:18:48;;;;;;;2.80;2.30;;;;;;;;;;20995975;28;20131;-65
2023/06/16 04:28:54;;;;;;;6.90;2.95;;;;;;;;;;20996749;28;20061;-66
2023/06/16 04:38:55;;;;;;;3.90;2.40;;;;;;;;;;20995414;28;20059;-66
2023/06/16 04:48:56;;;;;;;5.40;2.33;;;;;;;;;;20995096;28;20040;-66
2023/06/16 04:58:57;;;;;;;3.63;2.13;;;;;;;;;;20996036;28;20494;-66
2023/06/16 05:08:58;;;;;;;5.50;2.47;;;;;;;;;;20995438;28;20485;-66
2023/06/16 05:18:59;;;;;;;4.22;2.20;;;;;;;;;;20994008;28;20047;-66
2023/06/16 05:29:00;;;;;;;5.18;2.75;;;;;;;;;;21003442;28;20056;-67
2023/06/16 05:39:02;;;;;;;3.38;2.30;;;;;;;;;;21009785;28;20140;-66
2023/06/16 05:49:04;;;;;;;3.47;2.70;;;;;;;;;;21008780;28;20090;-66
2023/06/16 05:59:05;;;;;;;3.53;2.25;;;;;;;;;;21008434;28;20122;-66
2023/06/16 06:09:06;;;;;;;3.78;2.30;;;;;;;;;;21007314;28;20055;-66
2023/06/16 06:19:07;;;;;;;3.85;2.35;;;;;;;;;;21006335;28;20051;-67
2023/06/16 06:29:08;;;;;;;3.25;2.40;;;;;;;;;;21004505;28;20136;-66
2023/06/16 06:39:10;;;;;;;3.20;2.10;;;;;;;;;;21003589;28;20123;-66
2023/06/16 06:49:11;;;;;;;4.65;2.50;;;;;;;;;;21003351;28;20095;-65
2023/06/16 06:59:12;;;;;;;8.55;3.20;;;;;;;;;;21002381;28;20099;-66
2023/06/16 07:09:13;;;;;;;6.32;2.15;;;;;;;;;;21002146;28;20401;-65
2023/06/16 07:19:14;;;;;;;3.55;2.53;;;;;;;;;;21001164;28;20516;-66
2023/06/16 07:29:15;;;;;;;3.33;2.15;;;;;;;;;;21000433;28;20417;-66
2023/06/16 07:39:17;;;;;;;4.00;2.22;;;;;;;;;;21000064;28;20080;-66
2023/06/16 07:49:19;;;;;;;6.75;2.70;;;;;;;;;;20998498;28;20048;-66
2023/06/16 07:59:20;;;;;;;6.38;2.55;;;;;;;;;;20998346;28;20055;-66
2023/06/16 08:09:21;;;;;;;5.00;2.40;;;;;;;;;;20996557;28;20052;-65
2023/06/16 08:19:22;;;;;;;5.07;3.30;;;;;;;;;;20995160;28;20131;-66
2023/06/16 08:29:23;;;;;;;9.02;3.75;;;;;;;;;;20995263;28;20053;-66
2023/06/16 08:39:24;;;;;;;4.15;2.70;;;;;;;;;;20995429;28;20475;-66
2023/06/16 08:49:26;;;;;;;5.93;3.13;;;;;;;;;;20995028;28;20040;-66
2023/06/16 08:59:28;;;;;;;5.18;3.38;;;;;;;;;;20998000;28;20040;-66
2023/06/16 09:09:29;;;;;;;5.88;3.10;;;;;;;;;;21009929;28;20047;-66
2023/06/16 09:19:34;;;;;;;7.10;3.63;;;;;;;;;;21010917;28;20541;-67
2023/06/16 09:29:37;;;;;;;5.97;3.33;;;;;;;;;;21008995;28;20059;-66
2023/06/16 09:39:39;;;;;;;4.57;2.80;;;;;;;;;;21009032;28;20405;-66
2023/06/16 09:49:40;;;;;;;7.38;3.00;;;;;;;;;;20986756;28;20132;-61
2023/06/16 09:59:41;;;;;;;6.25;2.95;;;;;;;;;;20962019;28;20044;-62
2023/06/16 10:09:46;;;;;;;6.18;2.80;;;;;;;;;;21003796;28;20049;-63
2023/06/16 10:19:50;;;;;;;10.18;3.30;;;;;;;;;;21004503;28;20052;-66
2023/06/16 10:29:52;;;;;;;6.38;3.35;;;;;;;;;;21005092;28;20075;-65
2023/06/16 10:39:57;;;;;;;7.43;3.85;;;;;;;;;;21004409;28;20517;-69
2023/06/16 10:49:59;;;;;;;7.90;4.30;;;;;;;;;;21002216;28;20444;-65
2023/06/16 11:00:10;;;;;;;6.28;3.70;;;;;;;;;;21000556;28;20403;-65
2023/06/16 11:10:16;;;;;;;9.10;4.45;;;;;;;;;;21002337;28;20564;-65
2023/06/16 11:20:18;;;;;;;5.55;3.50;;;;;;;;;;20999541;28;20486;-67
2023/06/16 11:30:19;;;;;;;5.15;3.67;;;;;;;;;;20999360;28;20469;-68
2023/06/16 11:40:24;;;;;;;8.38;3.42;;;;;;;;;;20999177;28;20045;-68
2023/06/16 11:50:25;;;;;;;5.07;3.47;;;;;;;;;;20997962;28;20090;-67
2023/06/16 12:00:27;;;;;;;7.00;5.30;;;;;;;;;;20997329;28;20405;-67
2023/06/16 12:10:28;;;;;;;5.55;3.42;;;;;;;;;;20996430;28;20048;-67
2023/06/16 12:20:29;;;;;;;6.35;3.30;;;;;;;;;;20996986;28;20123;-67
2023/06/16 12:30:35;;;;;;;8.23;4.47;;;;;;;;;;20993977;28;20102;-67
2023/06/16 12:40:40;;;;;;;4.70;2.90;;;;;;;;;;20995435;28;20059;-67
2023/06/16 12:50:41;;;;;;;3.77;3.03;;;;;;;;;;20995309;28;20127;-67
2023/06/16 13:00:43;;;;;;;6.60;3.00;;;;;;;;;;20993826;28;20490;-67
2023/06/16 13:10:44;;;;;;;4.15;2.90;;;;;;;;;;20994146;28;20040;-67
2023/06/16 13:20:45;;;;;;;7.38;3.55;;;;;;;;;;20993704;28;20090;-67
2023/06/16 13:30:46;;;;;;;4.88;3.05;;;;;;;;;;20992508;28;20331;-67
2023/06/16 13:40:47;;;;;;;3.90;2.72;;;;;;;;;;20992535;28;20090;-67
2023/06/16 13:50:49;;;;;;;4.80;3.38;;;;;;;;;;21002734;28;20036;-67
2023/06/16 14:00:50;;;;;;;7.88;2.88;;;;;;;;;;21006598;28;20427;-67
2023/06/16 14:10:52;;;;;;;4.05;2.83;;;;;;;;;;21006092;28;20048;-68
2023/06/16 14:20:53;;;;;;;3.67;3.03;;;;;;;;;;21005220;28;20482;-67
2023/06/16 14:30:54;;;;;;;3.13;2.70;;;;;;;;;;21003711;28;20056;-68
2023/06/16 14:40:55;;;;;;;4.82;3.28;;;;;;;;;;21004167;28;20044;-67
2023/06/16 14:50:57;;;;;;;5.70;2.90;;;;;;;;;;21003092;28;20097;-67
2023/06/16 15:00:58;;;;;;;3.22;2.80;;;;;;;;;;21002124;28;20089;-68
2023/06/16 15:10:59;;;;;;;4.35;2.90;;;;;;;;;;21001039;28;20051;-68
2023/06/16 15:21:03;;;;;;;4.93;3.10;;;;;;;;;;21000184;28;20044;-67
2023/06/16 15:31:05;;;;;;;3.53;3.00;;;;;;;;;;20999689;28;20053;-67
2023/06/16 15:41:06;;;;;;;4.88;3.10;;;;;;;;;;20999388;28;20044;-68
2023/06/16 15:51:07;;;;;;;3.17;2.67;;;;;;;;;;20998722;28;20076;-68
2023/06/16 16:01:08;;;;;;;5.68;4.07;;;;;;;;;;20996426;28;20052;-69
2023/06/16 16:11:10;;;;;;;3.40;2.88;;;;;;;;;;20995449;28;20051;-68
2023/06/16 16:21:11;;;;;;;4.68;3.05;;;;;;;;;;20992212;28;20504;-68
2023/06/16 16:31:12;;;;;;;3.05;2.67;;;;;;;;;;20991726;28;20496;-68
2023/06/16 16:41:13;;;;;;;4.55;3.25;;;;;;;;;;20991119;28;20495;-67
2023/06/16 16:51:14;;;;;;;3.33;2.80;;;;;;;;;;20988766;28;20082;-68
2023/06/16 17:01:15;;;;;;;4.90;2.90;;;;;;;;;;20994827;28;20044;-67
2023/06/16 17:11:17;;;;;;;4.25;2.97;;;;;;;;;;20996849;28;20045;-67
2023/06/16 17:21:18;;;;;;;2.95;2.40;;;;;;;;;;21000471;28;20048;-67
2023/06/16 17:31:19;;;;;;;3.88;3.03;;;;;;;;;;21010961;28;20061;-67
2023/06/16 17:41:20;;;;;;;4.50;3.05;;;;;;;;;;21009864;28;20055;-67
2023/06/16 17:51:21;;;;;;;3.58;3.00;;;;;;;;;;21008759;28;20226;-67
2023/06/16 18:01:22;;;;;;;4.57;2.80;;;;;;;;;;21007906;28;20489;-67
2023/06/16 18:11:23;;;;;;;3.67;2.60;;;;;;;;;;21007228;28;20371;-67
2023/06/16 18:21:25;;;;;;;3.65;2.88;;;;;;;;;;21006508;28;20044;-67
2023/06/16 18:31:26;;;;;;;3.60;2.83;;;;;;;;;;21004250;28;20048;-67
2023/06/16 18:41:27;;;;;;;4.07;3.35;;;;;;;;;;21005325;28;20044;-66
2023/06/16 18:51:29;;;;;;;6.07;2.95;;;;;;;;;;21002859;28;20037;-66
2023/06/16 19:01:30;;;;;;;5.28;3.13;;;;;;;;;;21003433;28;20517;-67
2023/06/16 19:11:31;;;;;;;6.50;3.92;;;;;;;;;;21001972;28;20489;-67
2023/06/16 19:21:32;;;;;;;6.55;3.50;;;;;;;;;;21001811;28;20524;-68
2023/06/16 19:31:33;;;;;;;4.40;3.50;;;;;;;;;;20999871;28;20475;-67
2023/06/16 19:41:34;;;;;;;8.57;4.40;;;;;;;;;;20999692;28;20052;-68
2023/06/16 19:51:35;;;;;;;4.00;3.55;;;;;;;;;;20998203;28;20045;-68
2023/06/16 20:01:37;;;;;;;5.10;4.50;;;;;;;;;;20998279;28;20044;-67
2023/06/16 20:11:38;;;;;;;6.10;4.05;;;;;;;;;;20997952;28;20040;-67
2023/06/16 20:21:39;;;;;;;6.45;4.63;;;;;;;;;;20996990;28;20048;-70
2023/06/16 20:31:40;;;;;;;6.85;4.50;;;;;;;;;;20996327;28;20061;-67
2023/06/16 20:41:41;;;;;;;5.90;4.35;;;;;;;;;;20995209;28;20049;-67
2023/06/16 20:51:43;;;;;;;6.43;4.35;;;;;;;;;;20996000;28;20124;-67
2023/06/16 21:01:46;;;;;;;7.72;5.28;;;;;;;;;;21010219;28;20040;-67
2023/06/16 21:11:47;;;;;;;8.50;5.32;;;;;;;;;;21010616;28;20089;-67
2023/06/16 21:21:49;;;;;;;7.90;5.40;;;;;;;;;;21010550;28;20145;-68
2023/06/16 21:31:50;;;;;;;13.93;6.03;;;;;;;;;;21009527;28;20064;-67
2023/06/16 21:41:51;;;;;;;7.45;5.97;;;;;;;;;;21008846;28;20413;-67
2023/06/16 21:51:52;;;;;;;8.32;6.07;;;;;;;;;;21007277;28;20052;-68
2023/06/16 22:01:53;;;;;;;9.93;6.28;;;;;;;;;;21005808;28;20048;-67
2023/06/16 22:11:55;;;;;;;9.70;5.75;;;;;;;;;;21005459;28;20072;-68
2023/06/16 22:21:56;;;;;;;9.93;7.13;;;;;;;;;;21006038;28;20115;-67
2023/06/16 22:31:57;;;;;;;11.15;7.28;;;;;;;;;;21005485;28;20101;-67
2023/06/16 22:41:58;;;;;;;10.23;6.72;;;;;;;;;;21004570;28;20166;-67
2023/06/16 22:52:01;;;;;;;11.25;7.82;;;;;;;;;;21002877;28;20036;-67
2023/06/16 23:02:02;;;;;;;10.45;6.97;;;;;;;;;;21003665;28;20133;-67
2023/06/16 23:12:03;;;;;;;8.23;5.00;;;;;;;;;;21001707;28;20051;-68
2023/06/16 23:22:04;;;;;;;11.20;6.10;;;;;;;;;;21001854;28;20048;-68
2023/06/16 23:32:05;;;;;;;24.10;15.48;;;;;;;;;;21001119;28;20048;-68
2023/06/16 23:42:08;;;;;;;16.77;10.38;;;;;;;;;;21000726;28;20505;-67
2023/06/16 23:52:09;;;;;;;13.73;8.85;;;;;;;;;;20999566;28;20102;-67
